Time;durP1;ratioP1;P1;durP2;ratioP2;P2;SDS_P1;SDS_P2;PMS_P1;PMS_P2;Temp;Humidity;BMP_temperature;BMP_pressure;BME280_temperature;BME280_humidity;BME280_pressure;Samples;Min_cycle;Max_cycle;Signal;HPM_P1;HPM_P2
2022/10/25 00:00:16;;;;;;;3.47;1.95;;;12.30;99.90;;;;;;4877714;29;20044;-76
2022/10/25 00:02:42;;;;;;;3.75;2.00;;;11.80;99.90;;;;;;4892513;29;20521;-76
2022/10/25 00:05:13;;;;;;;3.38;2.13;;;12.20;99.90;;;;;;4877972;29;20397;-76
2022/10/25 00:07:39;;;;;;;4.72;1.98;;;12.10;99.90;;;;;;4892513;29;20489;-77
2022/10/25 00:10:05;;;;;;;5.22;2.30;;;11.80;99.90;;;;;;4877634;29;20045;-79
2022/10/25 00:12:31;;;;;;;4.63;1.98;;;11.80;99.90;;;;;;4881155;29;20125;-80
2022/10/25 00:15:00;;;;;;;3.85;2.50;;;11.80;99.90;;;;;;4877486;29;20120;-80
2022/10/25 00:17:26;;;;;;;4.88;2.60;;;12.30;99.90;;;;;;4877210;29;20048;-78
2022/10/25 00:19:52;;;;;;;4.13;2.33;;;12.20;99.90;;;;;;4896175;29;20155;-79
2022/10/25 00:22:17;;;;;;;3.63;1.90;;;11.80;99.90;;;;;;4898662;29;20048;-80
2022/10/25 00:24:44;;;;;;;3.72;2.22;;;12.20;99.90;;;;;;4898357;29;20123;-79
2022/10/25 00:27:09;;;;;;;3.85;2.10;;;12.30;99.90;;;;;;4873472;29;20036;-80
2022/10/25 00:29:35;;;;;;;3.20;2.25;;;12.10;99.90;;;;;;4898652;29;20047;-79
2022/10/25 00:32:01;;;;;;;3.40;1.80;;;12.20;99.90;;;;;;4883052;29;20378;-79
2022/10/25 00:34:26;;;;;;;3.05;1.83;;;12.30;99.90;;;;;;4892951;29;20565;-79
2022/10/25 00:36:52;;;;;;;2.75;1.60;;;11.60;99.90;;;;;;4874715;29;20048;-80
2022/10/25 00:39:18;;;;;;;3.20;2.03;;;12.00;99.90;;;;;;4898227;29;20138;-79
2022/10/25 00:41:43;;;;;;;4.50;2.25;;;11.60;99.90;;;;;;4898009;29;20063;-79
2022/10/25 00:44:46;;;;;;;3.92;2.40;;;12.10;99.90;;;;;;4910048;29;20072;-80
2022/10/25 00:47:25;;;;;;;3.80;2.35;;;11.70;99.90;;;;;;4880997;29;20048;-77
2022/10/25 00:49:56;;;;;;;7.40;3.72;;;11.80;99.90;;;;;;4887177;29;20560;-80
2022/10/25 00:52:22;;;;;;;5.95;3.33;;;12.40;99.90;;;;;;4886190;29;20101;-80
2022/10/25 00:54:50;;;;;;;4.85;2.83;;;12.40;99.90;;;;;;4885009;29;20044;-79
2022/10/25 00:57:41;;;;;;;5.72;3.30;;;11.80;99.90;;;;;;4902451;29;20064;-80
2022/10/25 01:00:08;;;;;;;7.53;4.13;;;12.70;99.90;;;;;;4881599;29;20400;-80
2022/10/25 01:02:33;;;;;;;;;;;12.70;99.90;;;;;;4892435;29;20036;-79
2022/10/25 01:04:59;;;;;;;8.82;4.20;;;12.70;99.90;;;;;;4897887;29;19926;-80
2022/10/25 01:07:25;;;;;;;7.63;4.80;;;12.40;99.90;;;;;;4898000;29;20048;-80
2022/10/25 01:09:51;;;;;;;6.47;3.80;;;12.00;99.90;;;;;;4882230;29;20498;-80
2022/10/25 01:12:17;;;;;;;;;;;12.00;99.90;;;;;;4882229;29;20048;-80
2022/10/25 01:14:47;;;;;;;10.32;4.82;;;12.50;99.90;;;;;;4898098;29;19928;-80
2022/10/25 01:17:41;;;;;;;8.95;4.72;;;12.80;99.90;;;;;;4897452;29;20504;-80
2022/10/25 01:20:25;;;;;;;8.63;4.82;;;12.00;99.90;;;;;;4911880;29;20059;-80
2022/10/25 01:23:09;;;;;;;8.15;4.72;;;12.30;99.90;;;;;;4911475;29;20144;-80
2022/10/25 01:25:46;;;;;;;7.63;4.50;;;12.60;99.90;;;;;;4894608;29;20047;-80
2022/10/25 01:28:31;;;;;;;9.07;5.00;;;12.10;99.90;;;;;;4886845;29;20037;-81
2022/10/25 01:31:13;;;;;;;9.82;5.15;;;12.20;99.90;;;;;;4911221;29;20051;-80
2022/10/25 01:33:47;;;;;;;7.70;4.97;;;12.90;99.90;;;;;;4916392;29;20048;-80
2022/10/25 01:36:23;;;;;;;9.15;4.70;;;13.00;99.90;;;;;;4884720;29;20048;-80
2022/10/25 01:38:58;;;;;;;5.40;4.07;;;12.30;99.90;;;;;;4896987;29;20087;-80
2022/10/25 01:41:36;;;;;;;11.02;5.20;;;12.20;99.90;;;;;;4886775;29;20088;-80
2022/10/25 01:44:08;;;;;;;8.63;5.40;;;12.60;99.90;;;;;;4899839;29;20064;-81
2022/10/25 01:47:01;;;;;;;7.18;4.45;;;12.80;99.90;;;;;;4884749;29;20092;-80
2022/10/25 01:49:56;;;;;;;9.00;5.50;;;12.90;99.90;;;;;;4913441;29;20051;-80
2022/10/25 01:52:23;;;;;;;6.65;4.55;;;12.70;99.90;;;;;;4899931;29;20144;-80
2022/10/25 01:54:50;;;;;;;7.43;4.55;;;12.60;99.90;;;;;;4900080;29;20044;-80
2022/10/25 01:57:40;;;;;;;6.35;4.30;;;12.20;99.90;;;;;;4901696;29;20464;-80
2022/10/25 02:00:19;;;;;;;6.75;4.28;;;12.50;99.90;;;;;;4905377;29;20035;-80
2022/10/25 02:03:12;;;;;;;6.82;4.40;;;12.10;99.90;;;;;;4880670;29;20044;-80
2022/10/25 02:05:53;;;;;;;6.43;3.65;;;13.00;99.90;;;;;;4893063;29;20496;-80
2022/10/25 02:08:47;;;;;;;6.43;3.83;;;13.00;99.90;;;;;;4898167;29;20572;-79
2022/10/25 02:11:28;;;;;;;5.65;4.20;;;12.30;99.90;;;;;;4898343;29;20059;-77
2022/10/25 02:14:08;;;;;;;6.20;3.88;;;12.80;99.90;;;;;;4904112;29;20508;-78
2022/10/25 02:16:41;;;;;;;5.25;3.65;;;12.70;99.90;;;;;;4901095;29;20047;-78
2022/10/25 02:19:11;;;;;;;7.18;4.43;;;13.10;99.90;;;;;;4899184;29;20044;-79
2022/10/25 02:21:36;;;;;;;5.22;3.50;;;13.10;99.90;;;;;;4893525;29;20066;-78
2022/10/25 02:24:18;;;;;;;7.97;3.97;;;13.20;99.90;;;;;;4877482;29;20856;-78
2022/10/25 02:26:47;;;;;;;6.13;3.65;;;12.90;99.90;;;;;;4875020;29;20052;-78
2022/10/25 02:29:14;;;;;;;5.10;3.25;;;12.40;99.90;;;;;;4864889;29;20108;-78
2022/10/25 02:31:40;;;;;;;5.43;3.13;;;13.10;99.90;;;;;;4878792;29;20104;-78
2022/10/25 02:34:06;;;;;;;6.55;3.75;;;13.00;99.90;;;;;;4894529;29;20125;-78
2022/10/25 02:36:31;;;;;;;7.05;3.03;;;12.50;99.90;;;;;;4887183;29;20060;-78
2022/10/25 02:38:58;;;;;;;5.03;2.70;;;12.70;99.90;;;;;;4895824;29;20059;-78
2022/10/25 02:41:24;;;;;;;4.00;2.47;;;12.80;99.90;;;;;;4878893;29;20053;-79
2022/10/25 02:43:50;;;;;;;3.90;2.38;;;12.40;99.90;;;;;;4869513;29;20056;-77
2022/10/25 02:46:19;;;;;;;5.38;3.20;;;12.40;99.90;;;;;;4864917;29;20129;-77
2022/10/25 02:48:45;;;;;;;5.75;3.33;;;12.90;99.90;;;;;;4895862;29;20517;-78
2022/10/25 02:51:11;;;;;;;;;;;13.10;99.90;;;;;;4881533;29;20051;-77
2022/10/25 02:53:37;;;;;;;8.20;3.95;;;12.40;99.90;;;;;;4879627;29;19923;-77
2022/10/25 02:56:06;;;;;;;6.88;4.20;;;12.70;99.90;;;;;;4892816;29;20048;-77
2022/10/25 02:58:34;;;;;;;6.32;3.72;;;13.20;99.90;;;;;;4869781;29;20055;-77
2022/10/25 03:01:00;;;;;;;6.10;2.95;;;12.90;99.90;;;;;;4879436;29;20158;-77
2022/10/25 03:03:26;;;;;;;4.72;3.10;;;12.60;99.90;;;;;;4879218;29;20131;-77
2022/10/25 03:05:52;;;;;;;5.22;3.25;;;13.20;99.90;;;;;;4863776;29;20064;-77
2022/10/25 03:08:19;;;;;;;4.50;3.00;;;13.30;99.90;;;;;;4882176;29;20083;-78
2022/10/25 03:10:44;;;;;;;4.78;3.08;;;13.40;99.90;;;;;;4880059;29;20048;-78
2022/10/25 03:13:10;;;;;;;6.05;3.15;;;12.60;99.90;;;;;;4878847;29;20412;-78
2022/10/25 03:15:36;;;;;;;4.70;2.70;;;12.70;99.90;;;;;;4870048;29;20049;-78
2022/10/25 03:18:02;;;;;;;5.88;2.75;;;13.30;99.90;;;;;;4894963;29;20052;-78
2022/10/25 03:20:27;;;;;;;4.05;2.28;;;12.90;99.90;;;;;;4866104;29;20060;-78
2022/10/25 03:22:53;;;;;;;4.35;2.42;;;13.20;99.90;;;;;;4882598;29;20048;-78
2022/10/25 03:25:19;;;;;;;4.40;1.98;;;13.00;99.90;;;;;;4871453;29;20069;-78
2022/10/25 03:27:44;;;;;;;4.60;2.03;;;13.30;99.90;;;;;;4906574;29;20090;-78
2022/10/25 03:30:13;;;;;;;6.25;2.25;;;12.80;99.90;;;;;;4898500;29;20484;-78
2022/10/25 03:32:39;;;;;;;5.32;2.83;;;13.30;99.90;;;;;;4890974;29;20048;-77
2022/10/25 03:35:05;;;;;;;3.90;2.20;;;12.40;99.90;;;;;;4875886;29;20047;-78
2022/10/25 03:37:31;;;;;;;3.28;1.90;;;12.70;99.90;;;;;;4883676;29;20156;-78
2022/10/25 03:39:57;;;;;;;3.40;1.90;;;12.40;99.90;;;;;;4892415;29;20467;-78
2022/10/25 03:42:23;;;;;;;5.63;2.10;;;12.40;99.90;;;;;;4899995;29;20062;-78
2022/10/25 03:44:49;;;;;;;3.47;1.75;;;12.50;99.90;;;;;;4910364;29;20051;-78
2022/10/25 03:47:15;;;;;;;2.35;1.20;;;12.50;99.90;;;;;;4898458;29;20040;-77
2022/10/25 03:49:40;;;;;;;1.85;1.00;;;13.00;99.90;;;;;;4891664;29;20040;-77
2022/10/25 03:52:06;;;;;;;1.67;1.40;;;13.00;99.90;;;;;;4884644;29;20032;-78
2022/10/25 03:54:33;;;;;;;2.67;1.30;;;13.30;99.90;;;;;;4897913;29;20036;-78
2022/10/25 03:56:58;;;;;;;;;;;13.10;99.90;;;;;;4905125;29;20055;-78
2022/10/25 03:59:24;;;;;;;6.72;2.15;;;13.00;99.90;;;;;;4929403;29;20403;-78
2022/10/25 04:01:50;;;;;;;3.75;2.10;;;12.80;99.90;;;;;;4881393;29;20035;-78
2022/10/25 04:04:15;;;;;;;4.80;2.33;;;12.40;99.90;;;;;;4884973;29;20457;-78
2022/10/25 04:06:41;;;;;;;3.78;1.80;;;12.50;99.90;;;;;;4895535;29;20048;-78
2022/10/25 04:09:07;;;;;;;3.80;2.20;;;13.20;99.90;;;;;;4902584;29;20111;-78
2022/10/25 04:11:33;;;;;;;2.88;1.73;;;12.60;99.90;;;;;;4913204;29;20112;-78
2022/10/25 04:13:58;;;;;;;3.05;1.67;;;12.40;99.90;;;;;;4903618;29;20135;-78
2022/10/25 04:16:25;;;;;;;3.88;1.90;;;13.00;99.90;;;;;;4906858;29;21103;-78
2022/10/25 04:18:52;;;;;;;3.63;2.00;;;12.20;99.90;;;;;;4893331;29;20063;-78
2022/10/25 04:21:19;;;;;;;3.75;1.98;;;13.00;99.90;;;;;;4877142;29;20048;-80
2022/10/25 04:23:44;;;;;;;6.97;2.90;;;13.00;99.90;;;;;;4883219;29;20127;-80
2022/10/25 04:26:13;;;;;;;6.30;3.03;;;12.30;99.90;;;;;;4861155;29;20127;-81
2022/10/25 04:28:38;;;;;;;5.97;2.80;;;12.10;99.90;;;;;;4894640;29;20040;-80
2022/10/25 04:31:04;;;;;;;3.03;2.10;;;12.10;99.90;;;;;;4892618;29;20051;-80
2022/10/25 04:33:30;;;;;;;4.47;2.70;;;12.70;99.90;;;;;;4895157;29;20048;-80
2022/10/25 04:35:56;;;;;;;4.05;2.30;;;12.90;99.90;;;;;;4863280;29;20488;-80
2022/10/25 04:38:22;;;;;;;7.35;3.65;;;12.90;99.90;;;;;;4893425;29;20060;-80
2022/10/25 04:40:56;;;;;;;4.55;2.38;;;12.20;99.90;;;;;;4857555;29;20041;-80
2022/10/25 04:43:23;;;;;;;3.80;2.15;;;12.40;99.90;;;;;;4874037;29;20052;-81
2022/10/25 04:45:48;;;;;;;4.22;2.15;;;12.70;99.90;;;;;;4877606;29;20374;-81
2022/10/25 04:48:15;;;;;;;5.30;2.63;;;12.60;99.90;;;;;;4893887;29;20131;-80
2022/10/25 04:50:40;;;;;;;4.65;2.63;;;12.80;99.90;;;;;;4878964;29;20107;-80
2022/10/25 04:53:06;;;;;;;4.70;2.38;;;12.70;99.90;;;;;;4893549;29;20449;-81
2022/10/25 04:55:32;;;;;;;3.22;2.38;;;12.40;99.90;;;;;;4891217;29;20053;-79
2022/10/25 04:57:58;;;;;;;3.58;2.30;;;12.70;99.90;;;;;;4878038;29;20533;-80
2022/10/25 05:00:24;;;;;;;5.80;2.22;;;12.20;99.90;;;;;;4894290;29;20147;-80
2022/10/25 05:02:54;;;;;;;4.60;2.83;;;12.10;99.90;;;;;;4892085;29;20110;-79
2022/10/25 05:05:22;;;;;;;4.47;1.98;;;12.60;99.90;;;;;;4892587;29;20080;-80
2022/10/25 05:07:47;;;;;;;5.68;2.47;;;12.10;99.90;;;;;;4896808;29;20040;-80
2022/10/25 05:10:13;;;;;;;4.63;2.10;;;12.70;99.90;;;;;;4898626;29;20037;-80
2022/10/25 05:12:39;;;;;;;4.82;2.20;;;12.00;99.90;;;;;;4897818;29;20489;-80
2022/10/25 05:15:05;;;;;;;2.85;1.75;;;12.00;99.90;;;;;;4896751;29;20044;-82
2022/10/25 05:17:32;;;;;;;3.15;1.77;;;12.00;99.90;;;;;;4893640;29;20401;-82
2022/10/25 05:19:57;;;;;;;;;;;12.70;99.90;;;;;;4898771;29;20127;-81
2022/10/25 05:22:24;;;;;;;5.55;2.80;;;12.50;99.90;;;;;;4904777;29;20076;-80
2022/10/25 05:24:50;;;;;;;;;;;12.00;99.90;;;;;;4907188;29;20123;-80
2022/10/25 05:27:16;;;;;;;4.60;2.92;;;11.90;99.90;;;;;;4900255;29;20341;-80
2022/10/25 05:29:42;;;;;;;7.10;3.08;;;12.70;99.90;;;;;;4900335;29;20054;-81
2022/10/25 05:32:08;;;;;;;4.32;2.78;;;11.90;99.90;;;;;;4898716;29;20403;-86
2022/10/25 05:34:33;;;;;;;9.13;3.90;;;12.50;99.90;;;;;;4891204;29;20043;-80
2022/10/25 05:36:59;;;;;;;8.68;3.58;;;12.00;99.90;;;;;;4885158;29;20720;-79
2022/10/25 05:39:25;;;;;;;5.55;3.08;;;12.40;99.90;;;;;;4897428;29;20058;-79
2022/10/25 05:41:50;;;;;;;6.90;3.25;;;12.10;99.90;;;;;;4902326;29;20103;-78
2022/10/25 05:44:16;;;;;;;6.30;3.38;;;13.00;99.90;;;;;;4917006;29;20046;-79
2022/10/25 05:46:43;;;;;;;10.18;4.78;;;12.80;99.90;;;;;;4901012;29;20448;-80
2022/10/25 05:49:10;;;;;;;9.15;3.75;;;12.90;99.90;;;;;;4898505;29;20143;-80
2022/10/25 05:51:36;;;;;;;5.20;3.10;;;13.20;99.90;;;;;;4887552;29;20045;-81
2022/10/25 05:54:04;;;;;;;8.80;3.95;;;12.70;99.90;;;;;;4897132;29;20038;-80
2022/10/25 05:56:31;;;;;;;5.07;3.00;;;12.20;99.90;;;;;;4884384;29;20040;-81
2022/10/25 05:59:00;;;;;;;5.80;2.95;;;13.00;99.90;;;;;;4886056;29;20051;-82
2022/10/25 06:01:26;;;;;;;6.38;3.00;;;12.30;99.90;;;;;;4900826;29;20052;-81
2022/10/25 06:03:53;;;;;;;3.83;2.33;;;13.20;99.90;;;;;;4901970;29;20040;-81
2022/10/25 06:06:20;;;;;;;4.65;2.50;;;12.50;99.90;;;;;;4885342;29;20048;-81
2022/10/25 06:08:46;;;;;;;4.93;2.15;;;12.30;99.90;;;;;;4887029;29;20040;-81
2022/10/25 06:11:17;;;;;;;6.88;3.03;;;12.30;99.90;;;;;;4900307;29;20040;-82
2022/10/25 06:13:43;;;;;;;5.18;2.40;;;13.10;99.90;;;;;;4904533;29;20044;-81
2022/10/25 06:16:14;;;;;;;5.07;2.90;;;13.00;99.90;;;;;;4897049;29;20169;-82
2022/10/25 06:18:40;;;;;;;5.05;2.33;;;12.10;99.90;;;;;;4897937;29;20608;-81
2022/10/25 06:21:11;;;;;;;5.50;2.80;;;12.90;99.90;;;;;;4901202;29;20100;-81
2022/10/25 06:23:38;;;;;;;5.80;2.35;;;12.50;99.90;;;;;;4898521;29;20047;-81
2022/10/25 06:26:07;;;;;;;3.53;1.80;;;12.10;99.90;;;;;;4897239;29;20058;-82
2022/10/25 06:28:32;;;;;;;5.55;2.00;;;13.00;99.90;;;;;;4901925;29;20051;-82
2022/10/25 06:31:08;;;;;;;2.95;1.88;;;12.90;99.90;;;;;;4898568;29;20037;-82
2022/10/25 06:33:34;;;;;;;3.70;2.20;;;12.90;99.90;;;;;;4896042;29;20050;-81
2022/10/25 06:36:02;;;;;;;6.30;2.53;;;13.00;99.90;;;;;;4903569;29;20528;-80
2022/10/25 06:38:29;;;;;;;6.15;2.70;;;12.10;99.90;;;;;;4905154;29;20047;-79
2022/10/25 06:40:59;;;;;;;4.68;2.20;;;12.90;99.90;;;;;;4892557;29;20123;-79
2022/10/25 06:43:25;;;;;;;4.38;2.17;;;12.20;99.90;;;;;;4885222;29;20052;-78
2022/10/25 06:45:51;;;;;;;4.40;1.88;;;12.00;99.90;;;;;;4899631;29;20492;-79
2022/10/25 06:48:17;;;;;;;5.68;2.80;;;12.50;99.90;;;;;;4906779;29;20074;-79
2022/10/25 06:50:43;;;;;;;5.20;2.70;;;12.20;99.90;;;;;;4898952;29;20075;-78
2022/10/25 06:53:08;;;;;;;6.47;2.50;;;12.80;99.90;;;;;;4899497;29;20044;-79
2022/10/25 06:55:34;;;;;;;6.85;2.42;;;12.90;99.90;;;;;;4896548;29;20060;-79
2022/10/25 06:58:00;;;;;;;4.60;2.17;;;13.00;99.90;;;;;;4884599;29;20055;-79
2022/10/25 07:00:25;;;;;;;4.78;1.83;;;13.00;99.90;;;;;;4910474;29;20400;-79
2022/10/25 07:02:56;;;;;;;3.80;1.70;;;13.10;99.90;;;;;;4916062;29;20385;-78
2022/10/25 07:05:21;;;;;;;3.60;1.60;;;12.20;99.90;;;;;;4884155;29;20040;-80
2022/10/25 07:07:47;;;;;;;4.10;2.00;;;12.70;99.90;;;;;;4883239;29;20628;-79
2022/10/25 07:10:13;;;;;;;3.22;1.50;;;12.30;99.90;;;;;;4880568;29;20052;-79
2022/10/25 07:12:39;;;;;;;4.38;1.80;;;12.90;99.90;;;;;;4884571;29;20043;-79
2022/10/25 07:15:05;;;;;;;5.93;2.83;;;12.20;99.90;;;;;;4900160;29;20131;-78
2022/10/25 07:17:31;;;;;;;;;;;13.10;99.90;;;;;;4888883;29;20055;-79
2022/10/25 07:19:56;;;;;;;6.80;2.70;;;13.10;99.90;;;;;;4896466;29;19923;-79
2022/10/25 07:22:23;;;;;;;4.07;1.85;;;13.10;99.90;;;;;;4895977;29;20069;-79
2022/10/25 07:24:49;;;;;;;2.92;1.45;;;12.40;99.90;;;;;;4867304;29;20123;-79
2022/10/25 07:27:15;;;;;;;5.28;1.95;;;12.50;99.90;;;;;;4879577;29;20567;-75
2022/10/25 07:29:41;;;;;;;7.82;2.03;;;13.20;99.90;;;;;;4894201;29;20048;-74
2022/10/25 07:32:08;;;;;;;4.00;1.75;;;13.00;99.90;;;;;;4874354;29;20045;-72
2022/10/25 07:34:34;;;;;;;7.10;2.20;;;12.50;99.90;;;;;;4878609;29;20484;-73
2022/10/25 07:36:59;;;;;;;3.92;1.55;;;12.50;99.90;;;;;;4893749;29;20077;-69
2022/10/25 07:39:25;;;;;;;4.03;1.40;;;12.40;99.90;;;;;;4892967;29;20179;-70
2022/10/25 07:41:52;;;;;;;4.78;1.65;;;12.50;99.90;;;;;;4893359;29;20064;-77
2022/10/25 07:44:19;;;;;;;5.13;1.95;;;13.30;99.90;;;;;;4879792;29;20469;-74
2022/10/25 07:46:44;;;;;;;5.13;1.83;;;13.30;99.90;;;;;;4896247;29;20103;-74
2022/10/25 07:49:10;;;;;;;5.05;1.80;;;12.40;99.90;;;;;;4878442;29;20453;-74
2022/10/25 07:51:36;;;;;;;5.13;1.95;;;12.50;99.90;;;;;;4888680;29;20063;-74
2022/10/25 07:54:02;;;;;;;4.47;1.63;;;12.50;99.90;;;;;;4893041;29;20041;-74
2022/10/25 07:56:29;;;;;;;3.95;1.80;;;12.90;99.90;;;;;;4893436;29;20053;-74
2022/10/25 07:58:55;;;;;;;5.05;1.80;;;12.90;99.90;;;;;;4896735;29;20044;-73
2022/10/25 08:01:25;;;;;;;;;;;13.10;99.90;;;;;;4895083;29;20054;-74
2022/10/25 08:03:52;;;;;;;5.05;1.75;;;12.70;99.90;;;;;;4894212;29;20676;-73
2022/10/25 08:06:18;;;;;;;3.90;1.60;;;13.10;99.90;;;;;;4860319;29;20048;-74
2022/10/25 08:08:44;;;;;;;3.97;1.60;;;13.50;99.90;;;;;;4889452;29;20053;-74
2022/10/25 08:11:10;;;;;;;4.93;1.80;;;12.80;99.90;;;;;;4877184;29;20408;-73
2022/10/25 08:13:37;;;;;;;4.85;1.75;;;13.50;99.90;;;;;;4893053;29;20048;-74
2022/10/25 08:16:03;;;;;;;5.38;1.80;;;13.50;99.90;;;;;;4893525;29;20055;-74
2022/10/25 08:18:29;;;;;;;3.63;1.40;;;13.00;99.90;;;;;;4878606;29;20131;-74
2022/10/25 08:20:55;;;;;;;;;;;13.10;99.90;;;;;;4881725;29;20063;-74
2022/10/25 08:23:21;;;;;;;6.90;1.80;;;13.70;99.90;;;;;;4909549;29;19926;-74
2022/10/25 08:25:46;;;;;;;4.13;1.70;;;13.80;99.90;;;;;;4912874;29;20047;-74
2022/10/25 08:28:12;;;;;;;4.32;1.80;;;13.70;99.90;;;;;;4881393;29;20476;-74
2022/10/25 08:30:41;;;;;;;5.07;1.60;;;13.90;99.90;;;;;;4896846;29;20040;-74
2022/10/25 08:33:07;;;;;;;5.75;1.88;;;13.90;99.90;;;;;;4914187;29;20040;-74
2022/10/25 08:35:33;;;;;;;6.50;2.20;;;13.70;99.90;;;;;;4897391;29;20146;-74
2022/10/25 08:38:00;;;;;;;7.75;2.63;;;14.10;99.90;;;;;;4896994;29;20094;-74
2022/10/25 08:40:30;;;;;;;5.65;2.05;;;13.50;99.90;;;;;;4883656;29;20048;-74
2022/10/25 08:43:14;;;;;;;5.78;2.00;;;13.50;99.90;;;;;;4900688;29;20048;-74
2022/10/25 08:45:50;;;;;;;4.88;1.42;;;13.60;99.90;;;;;;4874893;29;20043;-73
2022/10/25 08:48:22;;;;;;;6.55;1.88;;;13.50;99.90;;;;;;4908443;29;20150;-73
2022/10/25 08:50:56;;;;;;;5.53;2.00;;;14.10;99.90;;;;;;4892016;29;20107;-74
2022/10/25 08:53:35;;;;;;;6.53;2.17;;;14.30;99.90;;;;;;4894891;29;20040;-74
2022/10/25 08:56:01;;;;;;;6.53;2.20;;;13.80;99.90;;;;;;4877974;29;20056;-74
2022/10/25 08:58:42;;;;;;;9.75;3.33;;;13.80;99.90;;;;;;4899623;29;20087;-74
2022/10/25 09:01:25;;;;;;;7.22;2.85;;;14.20;99.90;;;;;;4895900;29;20036;-75
2022/10/25 09:03:51;;;;;;;8.27;2.90;;;13.80;99.90;;;;;;4907216;29;20048;-74
2022/10/25 09:06:17;;;;;;;6.43;2.70;;;13.90;99.90;;;;;;4896643;29;20036;-74
2022/10/25 09:08:56;;;;;;;;;;;14.30;99.90;;;;;;4896661;29;20059;-79
2022/10/25 09:11:54;;;;;;;11.95;3.50;;;14.00;99.90;;;;;;4883643;29;19938;-74
2022/10/25 09:14:52;;;;;;;5.18;2.70;;;14.30;99.90;;;;;;4899153;29;20116;-74
2022/10/25 09:17:25;;;;;;;6.60;2.80;;;14.00;99.90;;;;;;4891898;29;20051;-74
2022/10/25 09:20:00;;;;;;;5.07;2.45;;;14.00;99.90;;;;;;4880819;29;20489;-74
2022/10/25 09:22:29;;;;;;;7.07;2.90;;;14.50;99.90;;;;;;4871981;29;20148;-75
2022/10/25 09:25:09;;;;;;;6.22;3.15;;;14.10;99.90;;;;;;4893401;29;20087;-75
2022/10/25 09:27:42;;;;;;;7.20;3.10;;;14.30;99.90;;;;;;4880838;29;20076;-74
2022/10/25 09:30:10;;;;;;;7.68;3.70;;;14.80;99.90;;;;;;4880809;29;20032;-74
2022/10/25 09:32:36;;;;;;;8.40;3.03;;;14.70;99.90;;;;;;4898299;29;20064;-74
2022/10/25 09:35:04;;;;;;;7.15;2.88;;;14.80;99.90;;;;;;4880042;29;20056;-73
2022/10/25 09:37:37;;;;;;;4.72;2.55;;;14.90;99.90;;;;;;4896297;29;20040;-74
2022/10/25 09:40:13;;;;;;;4.15;2.15;;;14.60;99.90;;;;;;4896328;29;20142;-74
2022/10/25 09:42:45;;;;;;;8.83;2.67;;;14.70;99.90;;;;;;4880528;29;20045;-74
2022/10/25 09:45:40;;;;;;;8.00;2.65;;;15.00;99.90;;;;;;4896437;29;20875;-73
2022/10/25 09:48:16;;;;;;;6.30;2.47;;;15.00;99.90;;;;;;4888800;29;20057;-73
2022/10/25 09:50:50;;;;;;;5.80;2.20;;;14.90;99.90;;;;;;4880752;29;20044;-74
2022/10/25 09:53:18;;;;;;;9.57;3.13;;;15.20;99.90;;;;;;4896309;29;20079;-73
2022/10/25 09:55:55;;;;;;;6.53;2.30;;;15.30;99.90;;;;;;4892838;29;20049;-76
2022/10/25 09:58:22;;;;;;;5.43;2.10;;;15.20;99.90;;;;;;4893517;29;20176;-76
2022/10/25 10:00:50;;;;;;;5.25;2.10;;;15.30;99.90;;;;;;4890897;29;20133;-75
2022/10/25 10:03:16;;;;;;;6.50;2.33;;;15.00;99.90;;;;;;4875090;29;20041;-73
2022/10/25 10:05:54;;;;;;;6.53;2.45;;;15.20;99.90;;;;;;4877065;29;20469;-75
2022/10/25 10:08:20;;;;;;;7.05;1.88;;;15.00;99.90;;;;;;4875272;29;20071;-76
2022/10/25 10:10:48;;;;;;;6.28;2.40;;;15.10;99.90;;;;;;4875871;29;20047;-77
2022/10/25 10:13:34;;;;;;;5.15;1.70;;;15.20;99.90;;;;;;4875160;29;20051;-76
2022/10/25 10:16:08;;;;;;;5.03;1.70;;;15.10;99.90;;;;;;4891479;29;20104;-73
2022/10/25 10:18:34;;;;;;;8.07;1.75;;;15.40;99.90;;;;;;4878352;29;20076;-73
2022/10/25 10:21:10;;;;;;;9.15;2.00;;;15.40;99.90;;;;;;4899775;29;20048;-74
2022/10/25 10:23:52;;;;;;;3.47;1.52;;;15.50;99.90;;;;;;4893821;29;20048;-74
2022/10/25 10:26:30;;;;;;;8.77;1.70;;;15.50;99.90;;;;;;4899198;29;20094;-73
2022/10/25 10:29:29;;;;;;;6.93;1.98;;;15.80;99.90;;;;;;4907927;29;20078;-73
2022/10/25 10:31:59;;;;;;;7.80;1.95;;;15.80;99.90;;;;;;4882765;29;20040;-78
2022/10/25 10:34:26;;;;;;;8.35;1.98;;;15.80;99.90;;;;;;4898482;29;20051;-78
2022/10/25 10:37:11;;;;;;;8.43;2.13;;;15.80;99.90;;;;;;4899538;29;20062;-79
2022/10/25 10:39:51;;;;;;;5.25;1.45;;;15.80;99.90;;;;;;4879019;29;20051;-79
2022/10/25 10:42:19;;;;;;;7.35;2.20;;;15.90;99.90;;;;;;4914681;29;20044;-78
2022/10/25 10:45:11;;;;;;;4.20;1.20;;;16.00;99.90;;;;;;4900192;29;20131;-78
2022/10/25 10:47:38;;;;;;;4.65;1.27;;;16.20;99.90;;;;;;4895839;29;20054;-79
2022/10/25 10:50:23;;;;;;;5.85;1.90;;;16.30;99.90;;;;;;4888914;29;20151;-78
2022/10/25 10:52:54;;;;;;;7.57;1.52;;;16.40;99.90;;;;;;4923049;29;20047;-78
2022/10/25 10:55:45;;;;;;;4.63;1.17;;;16.70;99.90;;;;;;4915211;29;20058;-79
2022/10/25 10:58:15;;;;;;;6.03;1.60;;;16.70;99.90;;;;;;4904848;29;20058;-78
2022/10/25 11:00:52;;;;;;;5.50;1.40;;;16.80;99.90;;;;;;4890912;29;20043;-81
2022/10/25 11:03:39;;;;;;;6.80;1.55;;;16.80;99.90;;;;;;4881972;29;20574;-80
2022/10/25 11:06:26;;;;;;;;;;;17.00;99.90;;;;;;4900349;29;20128;-79
2022/10/25 11:09:16;;;;;;;7.82;1.70;;;17.00;99.90;;;;;;4901424;29;19965;-79
2022/10/25 11:11:43;;;;;;;6.55;1.60;;;17.00;99.90;;;;;;4906150;29;20578;-82
2022/10/25 11:14:12;;;;;;;4.45;1.40;;;16.90;99.90;;;;;;4882207;29;20048;-78
2022/10/25 11:17:00;;;;;;;3.88;1.10;;;16.70;99.90;;;;;;4893849;29;20084;-78
2022/10/25 11:19:52;;;;;;;3.10;1.05;;;16.70;99.90;;;;;;4893791;29;20060;-82
2022/10/25 11:22:17;;;;;;;5.18;1.25;;;17.00;99.90;;;;;;4901497;29;20059;-83
2022/10/25 11:25:08;;;;;;;5.07;1.40;;;17.10;99.90;;;;;;4899750;29;20567;-82
2022/10/25 11:27:52;;;;;;;6.43;1.33;;;17.00;99.90;;;;;;4883666;29;20048;-83
2022/10/25 11:30:34;;;;;;;4.80;1.30;;;16.90;99.90;;;;;;4894791;29;20131;-81
2022/10/25 11:33:16;;;;;;;5.88;1.40;;;16.90;99.90;;;;;;4897945;29;20044;-84
2022/10/25 11:36:13;;;;;;;4.70;1.38;;;16.80;99.90;;;;;;4898024;29;20060;-81
2022/10/25 11:39:26;;;;;;;4.93;1.25;;;16.80;99.90;;;;;;4883403;29;20044;-83
2022/10/25 11:42:12;;;;;;;4.63;1.17;;;16.80;99.90;;;;;;4877344;29;20044;-83
2022/10/25 11:44:48;;;;;;;4.10;1.30;;;16.90;99.90;;;;;;4879993;29;20567;-74
2022/10/25 11:47:33;;;;;;;6.72;1.30;;;17.10;99.90;;;;;;4892442;29;20043;-74
2022/10/25 11:50:27;;;;;;;3.83;1.42;;;17.50;99.90;;;;;;4893457;29;20136;-75
2022/10/25 11:52:59;;;;;;;4.90;1.50;;;17.50;99.90;;;;;;4878241;29;20055;-73
2022/10/25 11:55:24;;;;;;;4.15;1.48;;;17.30;99.90;;;;;;4906773;29;20637;-74
2022/10/25 11:58:11;;;;;;;5.07;1.42;;;17.40;99.90;;;;;;4893672;29;20040;-74
2022/10/25 12:01:00;;;;;;;;;;;17.70;99.90;;;;;;4892211;29;20052;-75
2022/10/25 12:03:26;;;;;;;3.53;1.20;;;17.80;99.90;;;;;;4879156;29;20021;-76
2022/10/25 12:05:58;;;;;;;;;;;17.70;99.90;;;;;;4893028;29;20504;-76
2022/10/25 12:08:54;;;;;;;5.53;1.35;;;17.60;99.90;;;;;;4892247;29;20366;-76
2022/10/25 12:11:30;;;;;;;2.92;0.90;;;17.50;99.90;;;;;;4889824;29;20068;-76
2022/10/25 12:14:09;;;;;;;6.43;1.50;;;17.60;99.90;;;;;;4892562;29;20039;-81
2022/10/25 12:16:36;;;;;;;4.57;1.25;;;17.80;99.90;;;;;;4898157;29;20055;-72
2022/10/25 12:19:21;;;;;;;4.13;1.13;;;18.10;99.90;;;;;;4899128;29;20068;-72
2022/10/25 12:22:06;;;;;;;4.53;1.20;;;18.30;99.90;;;;;;4912114;29;20056;-72
2022/10/25 12:24:46;;;;;;;5.47;1.60;;;18.30;99.90;;;;;;4896004;29;20044;-71
2022/10/25 12:27:17;;;;;;;3.67;1.13;;;18.20;99.90;;;;;;4899298;29;20051;-72
2022/10/25 12:29:47;;;;;;;4.32;1.33;;;18.40;99.90;;;;;;4914523;29;20096;-72
2022/10/25 12:32:19;;;;;;;4.70;1.25;;;18.30;99.90;;;;;;4897493;29;20484;-71
2022/10/25 12:34:56;;;;;;;2.90;1.05;;;18.40;99.90;;;;;;4913366;29;20104;-71
2022/10/25 12:37:25;;;;;;;3.72;1.10;;;18.40;99.90;;;;;;4906843;29;20130;-71
2022/10/25 12:39:51;;;;;;;3.92;1.30;;;18.50;99.90;;;;;;4900449;29;20056;-81
2022/10/25 12:42:22;;;;;;;;;;;18.20;99.90;;;;;;4901137;29;20059;-82
2022/10/25 12:45:04;;;;;;;3.25;1.10;;;18.30;99.90;;;;;;4893832;29;19923;-82
2022/10/25 12:47:57;;;;;;;4.43;1.13;;;18.00;99.90;;;;;;4905482;29;20044;-82
2022/10/25 12:50:50;;;;;;;4.28;1.30;;;17.90;99.90;;;;;;4899583;29;20045;-86
2022/10/25 12:53:43;;;;;;;4.85;1.00;;;17.70;99.90;;;;;;4879786;29;20048;-83
2022/10/25 12:56:27;;;;;;;4.32;1.05;;;17.40;99.90;;;;;;4915643;29;20044;-80
2022/10/25 12:59:08;;;;;;;3.42;1.10;;;17.50;99.90;;;;;;4894167;29;20043;-82
2022/10/25 13:01:52;;;;;;;5.40;1.17;;;17.70;99.90;;;;;;4921660;29;20515;-83
2022/10/25 13:05:01;;;;;;;4.47;1.23;;;17.80;99.90;;;;;;4900977;29;20105;-82
2022/10/25 13:07:30;;;;;;;7.15;1.30;;;18.00;99.90;;;;;;4919050;29;20072;-83
2022/10/25 13:10:15;;;;;;;2.92;1.10;;;18.10;99.90;;;;;;4886905;29;20108;-80
2022/10/25 13:12:56;;;;;;;3.95;1.30;;;18.30;99.90;;;;;;4886908;29;20044;-80